• Join FlightAware (Why Join?)
  • Login
  • US Flag 
08:14AM EDT


 

Airport Tracker/Info


-or-


 

Live Flight TrackerFlight Track Log ✈ VRT51 ✈ 04-Jan-2014 ✈ KFLL - KBNA

Flight Track Log - Related Links

Times and Time Zones

All times are in EST time to prevent confusion due to time zone crossing. See the VRT51 flight status page for this flight to view local times or setup timezone preferences in your user account.

Time Position Orientation Groundspeed Altitude Reporting Facility
EST Latitude Longitude Course Direction KTS MPH feet Rate Location/Type
05:19PM 26.0750 -80.1344 84° East 140 161 800  Level Miami Center
05:20PM 26.0803 -80.0789 84° East 202 232 3,100 2,460 Climbing Miami Center
05:20PM 26.0869 -80.0700 50° Northeast 193 222 3,400 1,620 Climbing Miami Center
05:21PM 26.1517 -80.0694 360° North 262 302 4,900 720 Climbing Miami Center
05:22PM 26.2264 -80.0875 348° North 274 315 4,900 960 Level Miami Center
05:23PM 26.2475 -80.1692 286° West 243 280 6,900 1,980 Climbing Miami Center
05:24PM 26.2517 -80.2619 273° West 253 291 8,900 1,080 Climbing Miami Center
05:25PM 26.2619 -80.3572 277° West 289 333 9,100 300 Climbing Miami Center
05:26PM 26.2742 -80.4525 278° West 310 357 9,500 1,740 Climbing Miami Center
05:27PM 26.2906 -80.5503 281° West 323 372 12,600 2,400 Climbing Miami Center
05:28PM 26.3428 -80.6378 304° West 323 372 14,400 1,800 Climbing Miami Center
05:29PM 26.4178 -80.7189 316° Northwest 351 404 16,300 2,280 Climbing Miami Center
05:30PM 26.5039 -80.7797 328° Northwest 375 432 19,000 2,520 Climbing Miami Center
05:31PM 26.5922 -80.8408 328° Northwest 375 432 21,400 2,100 Climbing Miami Center
05:32PM 26.6822 -80.9042 328° Northwest 380 437 23,300 1,860 Climbing Miami Center
05:33PM 26.7744 -80.9703 327° Northwest 385 443 25,200 1,560 Climbing Miami Center
05:34PM 26.8581 -81.0361 325° Northwest 396 456 26,500 1,560 Climbing Miami Center
05:35PM 26.9586 -81.1003 330° Northwest 402 463 28,400 1,560 Climbing Miami Center
05:36PM 27.0625 -81.1811 325° Northwest 410 472 29,700 1,380 Climbing Miami Center
05:37PM 27.1669 -81.2503 329° Northwest 421 484 31,200 1,380 Climbing Miami Center
05:38PM 27.2669 -81.3242 327° Northwest 427 491 32,500 1,620 Climbing Miami Center
05:39PM 27.3569 -81.3883 328° Northwest 437 503 34,500 1,740 Climbing Miami Center
05:40PM 27.4567 -81.4625 327° Northwest 426 490 36,000 1,500 Climbing Miami Center
05:41PM 27.5650 -81.5394 328° Northwest 426 490 37,500 960 Climbing Miami Center
05:42PM 27.6647 -81.6114 327° Northwest 421 484 38,000 240 Climbing Miami Center
05:43PM 27.7686 -81.6886 327° Northwest 433 498 38,000  Level Miami Center
05:44PM 27.8644 -81.7583 327° Northwest 448 516 38,100 780 Climbing Miami Center
05:45PM 27.9683 -81.8356 327° Northwest 448 516 39,600 900 Climbing Miami Center
05:46PM 28.0700 -81.9106 327° Northwest 448 516 40,000 240 Climbing Miami Center
05:47PM 28.1381 -81.9558 330° Northwest 448 516 40,000  Level Jacksonville Center
05:48PM 28.2472 -82.0350 327° Northwest 518 596 40,000 420 Level Jacksonville Center
05:49PM 28.3686 -82.0928 337° Northwest 484 557 40,900 1,440 Climbing Jacksonville Center
05:50PM 28.4858 -82.1414 340° North 457 526 42,900 1,020 Climbing Jacksonville Center
05:51PM 28.5967 -82.1881 340° North 438 504 43,000  Climbing Jacksonville Center
05:52PM 28.7117 -82.2369 340° North 433 498 43,000  Level Jacksonville Center
05:53PM 28.8267 -82.2836 340° North 433 498 43,000  Level Jacksonville Center
05:54PM 28.9439 -82.3325 340° North 433 498 43,000  Level Jacksonville Center
05:55PM 29.0694 -82.3889 339° North 433 498 43,000  Level Jacksonville Center
05:56PM 29.1842 -82.4383 339° North 439 505 43,000  Level Jacksonville Center
05:57PM 29.3056 -82.4900 340° North 444 511 43,000  Level Jacksonville Center
05:58PM 29.4225 -82.5397 340° North 444 511 43,000  Level Jacksonville Center
05:59PM 29.5397 -82.5894 340° North 449 517 43,000  Level Jacksonville Center
06:00PM 29.6586 -82.6392 340° North 449 517 43,000  Level Jacksonville Center
06:01PM 29.7778 -82.6939 338° Northwest 455 524 43,000  Level Jacksonville Center
06:02PM 29.8947 -82.7464 339° North 450 518 43,000  Level Jacksonville Center
06:03PM 30.0139 -82.7989 339° North 449 517 43,000  Level Jacksonville Center
06:04PM 30.1225 -82.8397 342° North 449 517 43,000  Level Jacksonville Center
06:05PM 30.2394 -82.8925 339° North 449 517 43,000  Level Jacksonville Center
06:06PM 30.3564 -82.9456 339° North 449 517 43,000  Level Jacksonville Center
06:07PM 30.4731 -82.9961 340° North 449 517 43,000  Level Jacksonville Center
06:08PM 30.5900 -83.0469 339° North 449 517 43,000  Level Jacksonville Center
06:09PM 30.7089 -83.1003 339° North 449 517 43,000  Level Jacksonville Center
06:10PM 30.8236 -83.1489 340° North 449 517 43,000  Level Jacksonville Center
06:11PM 30.9383 -83.2025 338° Northwest 449 517 43,000  Level Jacksonville Center
06:12PM 31.0553 -83.2539 339° North 444 511 43,000  Level Jacksonville Center
06:13PM 31.1742 -83.3078 339° North 450 518 43,000  Level Jacksonville Center
06:16PM 31.4947 -83.4494 339° North 450 518 43,000  Level Atlanta Center
06:17PM 31.6097 -83.5025 339° North 439 505 43,000  Level Atlanta Center
06:18PM 31.7289 -83.5531 340° North 439 505 43,000  Level Atlanta Center
06:19PM 31.8503 -83.6086 339° North 455 524 43,000  Level Atlanta Center
06:20PM 31.9672 -83.6642 338° Northwest 455 524 43,000  Level Atlanta Center
06:21PM 32.0822 -83.7178 338° Northwest 449 517 43,000  Level Atlanta Center
06:22PM 32.1992 -83.7714 339° North 449 517 43,000  Level Atlanta Center
06:23PM 32.3161 -83.8300 337° Northwest 455 524 43,000  Level Atlanta Center
06:24PM 32.4333 -83.8864 338° Northwest 455 524 43,000  Level Atlanta Center
06:25PM 32.5503 -83.9428 338° Northwest 455 524 43,000  Level Atlanta Center
06:26PM 32.6672 -84.0019 337° Northwest 455 524 43,000  Level Atlanta Center
06:27PM 32.7839 -84.0586 338° Northwest 455 524 43,000  Level Atlanta Center
06:28PM 32.9008 -84.1181 337° Northwest 455 524 43,000  Level Atlanta Center
06:29PM 33.0178 -84.1775 337° Northwest 455 524 43,000  Level Atlanta Center
06:30PM 33.1303 -84.2397 335° Northwest 450 518 43,000  Level Atlanta Center
06:31PM 33.2325 -84.2897 338° Northwest 450 518 43,000  Level Atlanta Center
06:32PM 33.3492 -84.3472 338° Northwest 444 511 43,000  Level Atlanta Center
06:33PM 33.4639 -84.4047 337° Northwest 444 511 43,000  Level Atlanta Center
06:34PM 33.5786 -84.4628 337° Northwest 444 511 43,000  Level Atlanta Center
06:35PM 33.7078 -84.5283 337° Northwest 444 511 43,000  Level Atlanta Center
06:36PM 33.8222 -84.5839 338° Northwest 449 517 43,000  Level Atlanta Center
06:37PM 33.9367 -84.6447 336° Northwest 449 517 43,000  Level Atlanta Center
06:38PM 34.0533 -84.7083 336° Northwest 449 517 43,000 -240 Level Atlanta Center
06:39PM 34.1742 -84.7644 339° North 459 528 42,600 -960 Descending Atlanta Center
06:40PM 34.2761 -84.8181 337° Northwest 459 528 41,100 -1,920 Descending Atlanta Center
06:41PM 34.3947 -84.8769 338° Northwest 452 520 38,800 -2,400 Descending Atlanta Center
06:42PM 34.5131 -84.9389 337° Northwest 459 528 36,400 -2,400 Descending Atlanta Center
06:43PM 34.6294 -85.0006 336° Northwest 454 522 34,100 -1,740 Descending Atlanta Center
06:44PM 34.7456 -85.0878 328° Northwest 444 511 33,000 -1,200 Descending Atlanta Center
06:46PM 34.9822 -85.2678 328° Northwest 453 521 30,300 -1,620 Descending Memphis Center
06:47PM 35.0894 -85.3525 327° Northwest 456 525 27,700 -2,640 Descending Memphis Center
06:48PM 35.1928 -85.4444 324° Northwest 457 526 25,000 -2,640 Descending Memphis Center
06:49PM 35.2758 -85.5567 312° West 445 512 22,400 -2,460 Descending Memphis Center
06:50PM 35.3542 -85.6561 314° West 417 480 20,000 -2,400 Descending Memphis Center
06:51PM 35.4367 -85.7606 314° West 363 418 17,600 -2,280 Descending Memphis Center
06:52PM 35.5050 -85.8483 314° West 356 410 15,300 -1,260 Descending Memphis Center
06:53PM 35.5717 -85.9356 313° West 352 405 15,100 -720 Descending Memphis Center
06:54PM 35.6358 -86.0214 313° West 343 395 13,900 -1,200 Descending Memphis Center
06:55PM 35.6983 -86.1056 312° West 332 382 12,700 -1,320 Descending Memphis Center
06:56PM 35.7622 -86.1931 312° West 337 388 11,300 -1,260 Descending Memphis Center
06:57PM 35.8261 -86.2758 314° West 332 382 10,200 -1,140 Descending Memphis Center
06:58PM 35.8800 -86.3453 314° West 286 329 9,000 -1,140 Descending Memphis Center
06:59PM 35.9325 -86.4144 313° West 275 316 7,900 -1,140 Descending Memphis Center
07:00PM 35.9844 -86.4842 313° West 274 315 6,700 -960 Descending Memphis Center
07:01PM 36.0425 -86.5606 313° West 260 299 6,000 -840 Descending Memphis Center
07:02PM 36.1072 -86.5661 356° North 253 291 5,100 -1,020 Descending Memphis Center
07:03PM 36.1706 -86.5378 20° North 245 282 3,900 -1,260 Descending Memphis Center
07:04PM 36.2253 -86.5564 345° North 233 268 2,600 -960 Descending Memphis Center
07:05PM 36.2269 -86.6158 272° West 198 228 2,000 -300 Descending Memphis Center
07:06PM 36.2025 -86.6492 228° Southwest 151 174 2,000 -180 Level Memphis Center
07:07PM 36.1761 -86.6589 197° South 113 130 1,700 -420 Descending Memphis Center
07:08PM 36.1483 -86.6697 197° South 105 121 1,200 -540 Descending Memphis Center
07:10PM 36.1156 -86.6831 198° South 106 122 700 -540 Descending Memphis Center
07:11PM 36.1167 -86.6667 345° North  Level FlightAware Approximate